OISF

Details ICAO OISF
Name FASA
Region Iran
Timezone Asia/Tehran (UTC+3.5)
Plans Departing 1
Arriving 1
Stats Elevation 4,261 ft / 1,299 m (AMSL)
Location 28.892361° 53.723334°
Runways 1
Magnetic Variation 2.914° E
Sunrise 2017-12-17 03:13:25 UTC / 2017-12-17 06:43:25 Local
Sunset 2017-12-17 13:31:38 UTC / 2017-12-17 17:01:38 Local
Advertisement - Login to hide

Runways

ID Width Length Bearing (true) Bearing (mag) Surface Threshold Offset Overrun Length
14 100 ft / 30 m 6,511 ft / 1,984 m 137.03° 134.12° Asphalt 0 ft / 0 m 250 ft / 76 m
32 100 ft / 30 m 6,511 ft / 1,984 m 317.04° 314.13° Asphalt 0 ft / 0 m 200 ft / 61 m

Map

Weather


0- 5 10 15 20 25 30 35+ Temperature / ° C

Clouds and Precipitation
Forecast for 2017-12-18 00:00 UTC. Updated an hour ago

Ground ~20,000 ft ~40,000 ft Winds

METAR

OISF 171950Z 34004KT CAVOK 05/04 Q1021

TAF

Not found

Frequencies

Tower 118.95 MHz INFO
Warning: Do not use this data for real-world aviation or navigation. No guarantee of current accuracy is given.